Terminal Aerodrome Forecast
Issued by NWS

Home | Current Version | Previous Version | Text Only | Print | Product List | Glossary Off
Versions: 1 2 3 4 5 6 7 8 9 10 11 12 13 14 15 16 17 18 19 20 21

000
FTUS43 KMPX 281100
TAFRWF
TAF
KRWF 281137Z 2812/2912 14006KT 6SM BR FEW070
     FM281400 17007KT P6SM SCT070
     FM281900 21010KT P6SM VCSH BKN070
     FM290000 22005KT P6SM SCT060
     FM290900 35004KT P6SM -RA SCT016 OVC025=

USA.gov is the U.S. government's official web portal to all federal, state and local government web resources and services.